createdAt,value
2022-12-22T00:00:33.635Z,31.40
2022-12-22T00:03:41.769Z,28.80
2022-12-22T00:06:29.941Z,28.80
2022-12-22T00:09:17.436Z,28.00
2022-12-22T00:12:05.463Z,39.50
2022-12-22T00:14:55.682Z,31.70
2022-12-22T00:17:47.598Z,31.50
2022-12-22T00:20:38.468Z,32.60
2022-12-22T00:23:29.351Z,38.30
2022-12-22T00:26:21.122Z,33.40
2022-12-22T00:29:18.311Z,30.50
2022-12-22T00:32:06.135Z,29.80
2022-12-22T00:35:01.981Z,47.80
2022-12-22T00:37:53.474Z,35.00
2022-12-22T00:40:52.485Z,33.80
2022-12-22T00:43:40.105Z,33.30
2022-12-22T00:46:30.691Z,33.90
2022-12-22T00:49:18.652Z,33.00
2022-12-22T00:52:06.488Z,32.80
2022-12-22T00:54:53.879Z,31.00
2022-12-22T00:57:45.415Z,33.20
2022-12-22T01:00:38.507Z,30.90
2022-12-22T01:03:35.721Z,30.50
2022-12-22T01:06:29.528Z,44.40
2022-12-22T01:09:17.725Z,39.20
2022-12-22T01:12:06.818Z,32.00
2022-12-22T01:14:55.121Z,35.50
2022-12-22T01:17:43.222Z,32.10
2022-12-22T01:20:31.361Z,31.70
2022-12-22T01:23:19.753Z,34.20
2022-12-22T01:26:10.178Z,31.20
2022-12-22T01:29:02.389Z,30.70
2022-12-22T01:31:51.961Z,30.30
2022-12-22T01:34:41.815Z,30.70
2022-12-22T01:37:29.160Z,31.30
2022-12-22T01:40:16.393Z,30.80
2022-12-22T01:43:03.986Z,30.70
2022-12-22T01:45:55.695Z,30.90
2022-12-22T01:48:48.835Z,32.30
2022-12-22T01:51:54.781Z,31.90
2022-12-22T01:54:42.346Z,31.80
2022-12-22T01:57:30.144Z,29.80
2022-12-22T02:00:18.040Z,31.50
2022-12-22T02:03:06.566Z,30.10
2022-12-22T02:06:00.644Z,31.30
2022-12-22T02:08:57.169Z,30.90
2022-12-22T02:12:17.952Z,30.50
2022-12-22T02:15:25.948Z,31.10
2022-12-22T02:18:39.624Z,30.00
2022-12-22T02:21:32.436Z,33.30
2022-12-22T02:24:31.565Z,32.20
2022-12-22T02:27:21.291Z,31.60
2022-12-22T02:30:15.910Z,32.60
2022-12-22T02:33:09.546Z,32.20
2022-12-22T02:36:15.512Z,32.20
2022-12-22T02:39:16.593Z,33.20
2022-12-22T02:42:14.772Z,31.00
2022-12-22T02:45:44.481Z,33.40
2022-12-22T02:48:59.299Z,35.80
2022-12-22T02:51:50.653Z,38.50
2022-12-22T02:54:39.159Z,31.40
2022-12-22T02:57:30.590Z,32.10
2022-12-22T03:00:17.978Z,30.90
2022-12-22T03:03:07.303Z,35.00
2022-12-22T03:05:54.909Z,32.80
2022-12-22T03:08:42.795Z,36.60
2022-12-22T03:11:30.344Z,39.90
2022-12-22T03:14:17.844Z,33.80
2022-12-22T03:17:09.068Z,32.60
2022-12-22T03:19:56.667Z,32.90
2022-12-22T03:22:44.078Z,36.20
2022-12-22T03:25:31.293Z,37.70
2022-12-22T03:28:05.934Z,33.30
2022-12-22T03:30:40.565Z,33.20
2022-12-22T03:33:10.954Z,32.40
2022-12-22T03:35:41.534Z,33.60
2022-12-22T03:38:13.792Z,33.30
2022-12-22T03:40:44.676Z,32.80
2022-12-22T03:43:36.628Z,33.00
2022-12-22T03:46:25.433Z,38.10
2022-12-22T03:49:13.779Z,34.90
2022-12-22T03:51:49.592Z,33.10
2022-12-22T03:54:24.102Z,33.30
2022-12-22T03:56:57.497Z,34.20
2022-12-22T03:59:30.949Z,33.90
2022-12-22T04:02:04.394Z,32.30
2022-12-22T04:04:35.516Z,32.40
2022-12-22T04:07:08.344Z,37.30
2022-12-22T04:09:58.992Z,33.90
2022-12-22T04:12:46.435Z,34.60
2022-12-22T04:15:19.790Z,42.40
2022-12-22T04:17:54.685Z,34.90
2022-12-22T04:20:33.125Z,33.50
2022-12-22T04:23:08.525Z,33.60
2022-12-22T04:25:48.920Z,34.90
2022-12-22T04:28:19.714Z,35.00
2022-12-22T04:30:53.687Z,35.60
2022-12-22T04:33:24.279Z,35.50
2022-12-22T04:35:54.653Z,35.60
2022-12-22T04:38:25.253Z,34.00
2022-12-22T04:40:55.863Z,35.60
2022-12-22T04:43:26.422Z,32.60
2022-12-22T04:45:58.394Z,37.00
2022-12-22T04:48:32.219Z,34.40
2022-12-22T04:51:03.526Z,36.30
2022-12-22T04:53:37.208Z,35.20
2022-12-22T04:56:12.074Z,36.10
2022-12-22T04:58:42.736Z,33.90
2022-12-22T05:01:18.898Z,32.90
2022-12-22T05:03:51.730Z,32.80
2022-12-22T05:06:22.303Z,35.10
2022-12-22T05:08:53.482Z,36.20
2022-12-22T05:11:23.857Z,36.00
2022-12-22T05:13:54.222Z,36.20
2022-12-22T05:16:28.087Z,36.50
2022-12-22T05:18:58.652Z,39.10
2022-12-22T05:21:30.368Z,41.10
2022-12-22T05:24:03.083Z,38.50
2022-12-22T05:26:33.523Z,37.70
2022-12-22T05:29:04.124Z,41.00
2022-12-22T05:31:35.832Z,38.10
2022-12-22T05:34:09.358Z,40.10
2022-12-22T05:36:41.762Z,40.50
2022-12-22T05:39:12.201Z,35.90
2022-12-22T05:41:42.770Z,36.50
2022-12-22T05:44:13.358Z,37.00
2022-12-22T05:46:45.002Z,38.30
2022-12-22T05:49:15.645Z,38.80
2022-12-22T05:51:46.310Z,37.00
2022-12-22T05:54:16.852Z,43.90
2022-12-22T05:56:49.352Z,39.70
2022-12-22T05:59:23.497Z,36.90
2022-12-22T06:01:53.944Z,36.10
2022-12-22T06:04:24.607Z,38.40
2022-12-22T06:06:55.255Z,37.90
2022-12-22T06:09:25.600Z,39.90
2022-12-22T06:11:58.313Z,39.60
2022-12-22T06:14:28.779Z,38.20
2022-12-22T06:17:00.491Z,37.00
2022-12-22T06:19:31.175Z,37.50
2022-12-22T06:22:05.735Z,36.70
2022-12-22T06:24:39.173Z,37.80
2022-12-22T06:27:11.564Z,37.40
2022-12-22T06:29:43.099Z,39.00
2022-12-22T06:32:13.668Z,40.00
2022-12-22T06:34:50.150Z,38.10
2022-12-22T06:37:25.210Z,38.40
2022-12-22T06:39:55.865Z,36.90
2022-12-22T06:42:43.202Z,37.50
2022-12-22T06:45:13.864Z,38.50
2022-12-22T06:47:46.315Z,38.30
2022-12-22T06:50:16.953Z,37.20
2022-12-22T06:52:47.522Z,38.50
2022-12-22T06:55:18.229Z,37.50
2022-12-22T06:57:48.652Z,38.20
2022-12-22T07:00:19.519Z,37.20
2022-12-22T07:02:58.024Z,35.20
2022-12-22T07:05:30.618Z,35.50
2022-12-22T07:08:08.695Z,37.30
2022-12-22T07:10:57.264Z,36.80
2022-12-22T07:13:36.430Z,39.40
2022-12-22T07:16:09.420Z,36.30
2022-12-22T07:18:46.600Z,35.70
2022-12-22T07:21:16.976Z,38.00
2022-12-22T07:23:50.451Z,35.30
2022-12-22T07:26:20.952Z,36.00
2022-12-22T07:28:51.565Z,36.30
2022-12-22T07:31:25.471Z,35.90
2022-12-22T07:34:00.595Z,36.70
2022-12-22T07:36:31.277Z,36.60
2022-12-22T07:39:01.928Z,37.70
2022-12-22T07:41:54.082Z,33.40
2022-12-22T07:44:25.772Z,34.50
2022-12-22T07:46:56.587Z,35.50
2022-12-22T07:49:44.216Z,34.70
2022-12-22T07:52:17.222Z,35.00
2022-12-22T07:54:52.393Z,37.40
2022-12-22T07:57:22.821Z,37.80
2022-12-22T07:59:56.760Z,38.50
2022-12-22T08:02:29.035Z,37.70
2022-12-22T08:05:04.038Z,35.50
2022-12-22T08:07:36.438Z,35.80
2022-12-22T08:10:07.146Z,36.00
2022-12-22T08:12:41.390Z,37.50
2022-12-22T08:15:12.820Z,38.20
2022-12-22T08:17:53.938Z,34.50
2022-12-22T08:20:26.693Z,37.60
2022-12-22T08:22:58.949Z,35.20
2022-12-22T08:25:29.652Z,34.90
2022-12-22T08:28:04.201Z,35.60
2022-12-22T08:30:38.525Z,34.70
2022-12-22T08:33:11.107Z,35.70
2022-12-22T08:35:44.176Z,34.40
2022-12-22T08:38:17.792Z,34.60
2022-12-22T08:40:51.731Z,36.00
2022-12-22T08:43:25.531Z,34.40
2022-12-22T08:46:00.293Z,31.60
2022-12-22T08:48:31.657Z,32.60
2022-12-22T08:51:05.786Z,33.20
2022-12-22T08:54:03.883Z,32.60
2022-12-22T08:56:35.162Z,32.80
2022-12-22T08:59:11.590Z,33.80
2022-12-22T09:01:48.318Z,34.90
2022-12-22T09:04:27.931Z,32.40
2022-12-22T09:06:59.985Z,31.20
2022-12-22T09:09:36.946Z,32.10
2022-12-22T09:12:07.862Z,32.50
2022-12-22T09:14:38.539Z,31.50
2022-12-22T09:17:09.182Z,32.90
2022-12-22T09:19:39.662Z,32.60
2022-12-22T09:22:18.314Z,32.00
2022-12-22T09:24:52.249Z,29.40
2022-12-22T09:27:22.684Z,28.80
2022-12-22T09:29:58.661Z,29.50
2022-12-22T09:32:31.710Z,29.30
2022-12-22T09:35:02.657Z,30.80
2022-12-22T09:37:33.241Z,31.00
2022-12-22T09:40:03.989Z,29.10
2022-12-22T09:42:38.594Z,29.50
2022-12-22T09:45:20.667Z,28.90
2022-12-22T09:47:57.211Z,28.00
2022-12-22T09:50:34.977Z,26.30
2022-12-22T09:53:08.450Z,29.60
2022-12-22T09:55:43.183Z,30.10
2022-12-22T09:58:27.523Z,29.30
2022-12-22T10:01:10.141Z,29.00
2022-12-22T10:03:48.694Z,28.60
2022-12-22T10:06:31.369Z,27.60
2022-12-22T10:09:35.893Z,29.00
2022-12-22T10:12:00.411Z,27.20
2022-12-22T10:14:44.410Z,27.80
2022-12-22T10:17:25.494Z,27.60
2022-12-22T10:20:11.124Z,27.20
2022-12-22T10:22:53.123Z,26.20
2022-12-22T10:26:17.281Z,26.20
2022-12-22T10:28:42.813Z,26.40
2022-12-22T10:31:23.609Z,25.30
2022-12-22T10:34:00.888Z,24.90
2022-12-22T10:36:34.572Z,26.10
2022-12-22T10:39:11.288Z,25.50
2022-12-22T10:41:53.535Z,22.90
2022-12-22T10:44:39.277Z,23.00
2022-12-22T10:47:18.244Z,22.20
2022-12-22T10:52:30.878Z,22.20
2022-12-22T10:55:21.819Z,22.10
2022-12-22T10:57:52.495Z,23.60
2022-12-22T11:00:32.352Z,22.90
2022-12-22T11:03:06.258Z,23.90
2022-12-22T11:05:37.153Z,21.80
2022-12-22T11:08:23.525Z,21.20
2022-12-22T11:11:24.044Z,19.80
2022-12-22T11:14:11.628Z,24.10
2022-12-22T11:16:56.179Z,22.70
2022-12-22T11:19:32.840Z,20.30
2022-12-22T11:22:07.303Z,22.80
2022-12-22T11:24:57.044Z,23.50
2022-12-22T11:27:34.269Z,21.80
2022-12-22T11:30:40.226Z,22.30
2022-12-22T11:33:33.838Z,22.60
2022-12-22T11:36:07.381Z,23.70
2022-12-22T11:38:58.592Z,23.10
2022-12-22T11:41:44.733Z,23.60
2022-12-22T11:44:21.406Z,22.70
2022-12-22T11:46:55.851Z,21.80
2022-12-22T11:49:51.404Z,21.80
2022-12-22T11:52:50.051Z,20.40
2022-12-22T11:55:35.033Z,21.70
2022-12-22T11:58:23.899Z,21.80
2022-12-22T12:01:14.893Z,21.80
2022-12-22T12:04:19.022Z,21.90
2022-12-22T12:07:11.469Z,20.40
2022-12-22T12:10:29.606Z,19.30
2022-12-22T12:13:24.050Z,20.50
2022-12-22T12:16:02.326Z,19.80
2022-12-22T12:18:42.862Z,19.70
2022-12-22T12:21:30.670Z,20.20
2022-12-22T12:24:23.613Z,20.00
2022-12-22T12:27:36.671Z,19.50
2022-12-22T12:33:36.279Z,20.20
2022-12-22T12:36:44.298Z,20.10
2022-12-22T12:39:30.126Z,20.40
2022-12-22T12:42:16.305Z,20.40
2022-12-22T12:44:52.216Z,19.60
2022-12-22T12:47:32.590Z,19.40
2022-12-22T12:50:35.452Z,20.10
2022-12-22T12:53:11.707Z,21.90
2022-12-22T12:55:40.119Z,20.90
2022-12-22T12:58:32.556Z,20.70
2022-12-22T13:01:33.857Z,22.40
2022-12-22T13:04:04.605Z,21.80
2022-12-22T13:06:50.583Z,21.80
2022-12-22T13:12:52.817Z,24.70
2022-12-22T13:15:39.335Z,25.00
2022-12-22T13:18:51.321Z,24.10
2022-12-22T13:21:52.440Z,24.70
2022-12-22T13:24:25.148Z,24.60
2022-12-22T13:27:09.046Z,24.20
2022-12-22T13:29:49.555Z,22.60
2022-12-22T13:32:36.204Z,23.40
2022-12-22T13:35:33.104Z,23.90
2022-12-22T13:38:08.664Z,24.00
2022-12-22T13:40:44.984Z,24.30
2022-12-22T13:43:18.211Z,23.00
2022-12-22T13:46:03.387Z,22.20
2022-12-22T13:48:51.960Z,23.60
2022-12-22T13:51:33.026Z,23.00
2022-12-22T13:54:20.401Z,22.50
2022-12-22T13:57:04.375Z,23.40
2022-12-22T13:59:42.586Z,23.30
2022-12-22T14:02:14.427Z,23.90
2022-12-22T14:04:52.557Z,23.90
2022-12-22T14:07:29.559Z,22.50
2022-12-22T14:10:03.066Z,21.80
2022-12-22T14:12:46.713Z,22.30
2022-12-22T14:15:24.186Z,23.20
2022-12-22T14:17:57.729Z,24.60
2022-12-22T14:20:41.933Z,25.20
2022-12-22T14:23:45.518Z,24.40
2022-12-22T14:26:21.993Z,24.70
2022-12-22T14:28:59.450Z,22.80
2022-12-22T14:31:36.495Z,23.20
2022-12-22T14:34:07.009Z,25.30
2022-12-22T14:36:46.330Z,24.70
2022-12-22T14:39:25.216Z,25.90
2022-12-22T14:42:07.034Z,26.10
2022-12-22T14:44:49.170Z,26.50
2022-12-22T14:47:23.993Z,26.70
2022-12-22T14:50:04.722Z,25.00
2022-12-22T14:52:53.569Z,23.10
2022-12-22T14:55:29.892Z,26.10
2022-12-22T14:58:17.106Z,26.10
2022-12-22T15:00:50.382Z,25.30
2022-12-22T15:03:27.028Z,26.60
2022-12-22T15:06:00.799Z,27.10
2022-12-22T15:08:45.109Z,27.00
2022-12-22T15:11:19.047Z,31.10
2022-12-22T15:13:54.983Z,25.80
2022-12-22T15:16:26.300Z,26.80
2022-12-22T15:18:57.010Z,26.00
2022-12-22T15:21:27.468Z,27.50
2022-12-22T15:23:58.146Z,27.10
2022-12-22T15:26:30.653Z,27.80
2022-12-22T15:29:05.697Z,27.60
2022-12-22T15:31:36.404Z,27.20
2022-12-22T15:34:20.920Z,26.30
2022-12-22T15:36:53.543Z,27.10
2022-12-22T15:39:25.076Z,26.90
2022-12-22T15:41:56.350Z,26.20
2022-12-22T15:44:26.734Z,29.20
2022-12-22T15:46:59.430Z,26.90
2022-12-22T15:49:34.412Z,28.40
2022-12-22T15:52:07.850Z,24.70
2022-12-22T15:54:38.634Z,24.50
2022-12-22T15:57:14.343Z,24.90
2022-12-22T15:59:44.897Z,24.80
2022-12-22T16:02:16.475Z,25.70
2022-12-22T16:04:48.851Z,26.30
2022-12-22T16:07:23.004Z,25.20
2022-12-22T16:09:53.502Z,24.50
2022-12-22T16:12:27.323Z,22.70
2022-12-22T16:15:00.002Z,27.60
2022-12-22T16:17:31.493Z,26.60
2022-12-22T16:20:02.118Z,26.10
2022-12-22T16:22:37.885Z,27.20
2022-12-22T16:25:18.057Z,27.10
2022-12-22T16:27:50.311Z,27.90
2022-12-22T16:30:26.811Z,28.50
2022-12-22T16:32:57.576Z,25.90
2022-12-22T16:35:32.574Z,24.50
2022-12-22T16:38:04.256Z,24.90
2022-12-22T16:40:41.564Z,27.20
2022-12-22T16:46:17.681Z,27.60
2022-12-22T16:48:57.915Z,28.80
2022-12-22T16:51:35.024Z,34.50
2022-12-22T16:54:09.795Z,26.90
2022-12-22T16:56:43.736Z,26.20
2022-12-22T16:59:14.832Z,29.40
2022-12-22T17:01:56.593Z,28.20
2022-12-22T17:04:32.891Z,30.60
2022-12-22T17:07:05.608Z,28.90
2022-12-22T17:09:50.010Z,29.50
2022-12-22T17:12:32.006Z,28.80
2022-12-22T17:15:03.751Z,29.20
2022-12-22T17:17:40.153Z,27.30
2022-12-22T17:20:21.565Z,28.80
2022-12-22T17:22:59.680Z,28.60
2022-12-22T17:25:32.696Z,30.20
2022-12-22T17:34:58.452Z,30.00
2022-12-22T17:37:37.187Z,27.20
2022-12-22T17:40:10.465Z,29.20
2022-12-22T17:42:40.942Z,28.00
2022-12-22T17:45:20.626Z,29.80
2022-12-22T17:47:51.133Z,27.50
2022-12-22T17:50:24.268Z,26.30
2022-12-22T17:52:58.003Z,32.90
2022-12-22T17:58:20.925Z,27.90
2022-12-22T18:00:51.662Z,24.00
2022-12-22T18:03:24.400Z,24.30
2022-12-22T18:05:57.385Z,26.50
2022-12-22T18:08:30.168Z,25.30
2022-12-22T18:11:01.109Z,24.90
2022-12-22T18:13:33.073Z,24.10
2022-12-22T18:16:04.020Z,25.30
2022-12-22T18:18:35.714Z,25.60
2022-12-22T18:21:08.294Z,31.00
2022-12-22T18:23:47.951Z,24.90
2022-12-22T18:26:36.174Z,24.00
2022-12-22T18:29:06.754Z,25.10
2022-12-22T18:31:37.541Z,24.30
2022-12-22T18:34:11.015Z,23.80
2022-12-22T18:36:46.292Z,21.70
2022-12-22T18:39:20.660Z,22.00
2022-12-22T18:41:54.732Z,20.60
2022-12-22T18:44:26.557Z,24.80
2022-12-22T18:46:58.047Z,22.80
2022-12-22T18:49:28.902Z,20.80
2022-12-22T18:52:05.078Z,20.80
2022-12-22T18:54:39.824Z,23.00
2022-12-22T18:57:21.911Z,20.80
